KLM321 SEQM-SEGU
Flight info
| Callsign | KLM321 |
|---|---|
| Flight time | 0h 30m |
| Altitude | 24000 |
| Route | TEMOX3A TEMOX TEMOX2 |
| Aircraft | B772/H-SDE2E3FGHIJ1RWXY/L |
Departure
| Time | 2026-04-25 18:04 |
|---|---|
| Airport | Mariscal Sucre International Airport (SEQM) |
Arrival
| Time | 2026-04-25 18:34 |
|---|---|
| Airport | José Joaquín de Olmedo International Airport (SEGU) |
| Time | Latitude | Longitude | Altitude | Speed | Heading |
|---|---|---|---|---|---|
| 2026-04-25 17:47 | -0.12755 | -78.35914 | 7838 ft | 0 kts | 225° |
| 2026-04-25 17:56 | -0.12743 | -78.35903 | 7833 ft | 2 kts | 224° |
| 2026-04-25 17:57 | -0.12732 | -78.35891 | 7839 ft | 2 kts | 224° |
| 2026-04-25 17:57 | -0.12720 | -78.35880 | 7836 ft | 2 kts | 223° |
| 2026-04-25 17:57 | -0.12708 | -78.35869 | 7836 ft | 2 kts | 222° |
| 2026-04-25 17:57 | -0.12699 | -78.35862 | 7836 ft | 2 kts | 221° |
| 2026-04-25 17:58 | -0.12683 | -78.35848 | 7836 ft | 2 kts | 217° |
| 2026-04-25 17:58 | -0.12669 | -78.35838 | 7836 ft | 2 kts | 211° |
| 2026-04-25 17:58 | -0.12655 | -78.35831 | 7836 ft | 2 kts | 195° |
| 2026-04-25 17:58 | -0.12641 | -78.35829 | 7836 ft | 1 kts | 177° |
| 2026-04-25 17:59 | -0.12638 | -78.35829 | 7836 ft | 0 kts | 177° |
| 2026-04-25 18:00 | -0.12640 | -78.35829 | 7846 ft | 4 kts | 177° |
| 2026-04-25 18:00 | -0.12692 | -78.35793 | 7842 ft | 16 kts | 113° |
| 2026-04-25 18:00 | -0.12692 | -78.35652 | 7840 ft | 18 kts | 89° |
| 2026-04-25 18:00 | -0.12757 | -78.35596 | 7850 ft | 20 kts | 174° |
| 2026-04-25 18:01 | -0.12962 | -78.35592 | 7854 ft | 25 kts | 177° |
| 2026-04-25 18:01 | -0.13200 | -78.35581 | 7868 ft | 43 kts | 177° |
| 2026-04-25 18:01 | -0.13467 | -78.35569 | 7880 ft | 41 kts | 177° |
| 2026-04-25 18:01 | -0.13720 | -78.35558 | 7896 ft | 42 kts | 177° |
| 2026-04-25 18:02 | -0.13970 | -78.35547 | 7910 ft | 43 kts | 177° |
| 2026-04-25 18:02 | -0.14202 | -78.35532 | 7920 ft | 24 kts | 166° |
| 2026-04-25 18:02 | -0.14261 | -78.35455 | 7926 ft | 12 kts | 94° |
| 2026-04-25 18:02 | -0.14225 | -78.35373 | 7921 ft | 9 kts | 18° |
| 2026-04-25 18:03 | -0.14168 | -78.35371 | 7919 ft | 29 kts | 359° |
| 2026-04-25 18:03 | -0.13613 | -78.35389 | 7897 ft | 127 kts | 357° |
| 2026-04-25 18:03 | -0.12432 | -78.35442 | 7849 ft | 210 kts | 358° |
| 2026-04-25 18:03 | -0.10829 | -78.35521 | 8112 ft | 238 kts | 356° |
| 2026-04-25 18:04 | -0.09162 | -78.35594 | 9566 ft | 243 kts | 358° |
| 2026-04-25 18:04 | -0.07453 | -78.35658 | 10912 ft | 246 kts | 356° |
| 2026-04-25 18:04 | -0.05742 | -78.36008 | 11578 ft | 264 kts | 342° |
| 2026-04-25 18:04 | -0.03970 | -78.36675 | 12359 ft | 280 kts | 339° |
| 2026-04-25 18:05 | -0.02123 | -78.37424 | 12996 ft | 290 kts | 338° |
| 2026-04-25 18:05 | -0.00256 | -78.38176 | 13639 ft | 290 kts | 339° |
| 2026-04-25 18:05 | 0.01607 | -78.38900 | 14284 ft | 293 kts | 339° |
| 2026-04-25 18:05 | 0.03526 | -78.39627 | 15160 ft | 296 kts | 340° |
| 2026-04-25 18:06 | 0.05458 | -78.40368 | 16027 ft | 298 kts | 337° |
| 2026-04-25 18:06 | 0.07337 | -78.41227 | 16856 ft | 300 kts | 331° |
| 2026-04-25 18:06 | 0.09158 | -78.42332 | 17522 ft | 310 kts | 324° |
| 2026-04-25 18:06 | 0.10843 | -78.43708 | 18142 ft | 317 kts | 313° |
| 2026-04-25 18:07 | 0.11976 | -78.45632 | 18616 ft | 328 kts | 288° |
| 2026-04-25 18:07 | 0.12625 | -78.47842 | 19244 ft | 335 kts | 286° |
| 2026-04-25 18:07 | 0.13308 | -78.50087 | 19983 ft | 339 kts | 289° |
| 2026-04-25 18:07 | 0.14090 | -78.52326 | 20751 ft | 342 kts | 291° |
| 2026-04-25 18:08 | 0.14855 | -78.54573 | 21463 ft | 343 kts | 282° |
| 2026-04-25 18:08 | 0.14802 | -78.56984 | 21964 ft | 356 kts | 254° |
| 2026-04-25 18:08 | 0.13661 | -78.59194 | 22654 ft | 363 kts | 233° |
| 2026-04-25 18:08 | 0.11994 | -78.61034 | 23378 ft | 362 kts | 224° |
| 2026-04-25 18:09 | 0.10075 | -78.62702 | 23716 ft | 373 kts | 220° |
| 2026-04-25 18:09 | 0.07958 | -78.64339 | 23712 ft | 397 kts | 217° |
| 2026-04-25 18:09 | 0.05660 | -78.66011 | 23717 ft | 419 kts | 216° |
| 2026-04-25 18:09 | 0.04031 | -78.67171 | 23730 ft | 433 kts | 216° |
| 2026-04-25 18:10 | 0.00691 | -78.69559 | 23706 ft | 457 kts | 216° |
| 2026-04-25 18:10 | -0.01929 | -78.71435 | 23716 ft | 470 kts | 216° |
| 2026-04-25 18:10 | -0.04608 | -78.73367 | 23722 ft | 476 kts | 216° |
| 2026-04-25 18:10 | -0.07272 | -78.75310 | 23716 ft | 477 kts | 217° |
| 2026-04-25 18:11 | -0.09921 | -78.77250 | 23720 ft | 470 kts | 217° |
| 2026-04-25 18:11 | -0.12572 | -78.79196 | 23726 ft | 474 kts | 217° |
| 2026-04-25 18:11 | -0.15233 | -78.81148 | 23718 ft | 472 kts | 217° |
| 2026-04-25 18:11 | -0.17878 | -78.83091 | 23719 ft | 474 kts | 216° |
| 2026-04-25 18:12 | -0.20538 | -78.85028 | 23699 ft | 474 kts | 217° |
| 2026-04-25 18:12 | -0.23201 | -78.86973 | 23704 ft | 473 kts | 217° |
| 2026-04-25 18:12 | -0.25864 | -78.88921 | 23695 ft | 473 kts | 217° |
| 2026-04-25 18:12 | -0.28496 | -78.90846 | 23706 ft | 476 kts | 216° |
| 2026-04-25 18:13 | -0.31192 | -78.92821 | 23735 ft | 477 kts | 217° |
| 2026-04-25 18:13 | -0.33854 | -78.94776 | 23740 ft | 483 kts | 217° |
| 2026-04-25 18:13 | -0.36576 | -78.96767 | 23727 ft | 485 kts | 217° |
| 2026-04-25 18:14 | -0.41818 | -79.00662 | 23673 ft | 483 kts | 219° |
| 2026-04-25 18:14 | -0.44548 | -79.02712 | 23674 ft | 481 kts | 218° |
| 2026-04-25 18:14 | -0.47196 | -79.04666 | 23696 ft | 482 kts | 218° |
| 2026-04-25 18:14 | -0.49922 | -79.06642 | 23712 ft | 484 kts | 217° |
| 2026-04-25 18:15 | -0.52645 | -79.08601 | 23712 ft | 481 kts | 217° |
| 2026-04-25 18:15 | -0.55358 | -79.10560 | 23718 ft | 482 kts | 217° |
| 2026-04-25 18:15 | -0.58068 | -79.12537 | 23714 ft | 484 kts | 218° |
| 2026-04-25 18:15 | -0.60803 | -79.14459 | 23663 ft | 477 kts | 213° |
| 2026-04-25 18:16 | -0.63721 | -79.15996 | 23687 ft | 482 kts | 206° |
| 2026-04-25 18:16 | -0.66815 | -79.17328 | 23690 ft | 485 kts | 203° |
| 2026-04-25 18:16 | -0.73080 | -79.19879 | 23684 ft | 485 kts | 204° |
| 2026-04-25 18:17 | -0.76174 | -79.21205 | 23690 ft | 483 kts | 205° |
| 2026-04-25 18:17 | -0.79241 | -79.22572 | 23676 ft | 482 kts | 205° |
| 2026-04-25 18:17 | -0.82289 | -79.23968 | 23678 ft | 481 kts | 206° |
| 2026-04-25 18:17 | -0.85316 | -79.25373 | 23610 ft | 478 kts | 206° |
| 2026-04-25 18:18 | -0.88316 | -79.26776 | 22884 ft | 473 kts | 206° |
| 2026-04-25 18:18 | -0.91277 | -79.28159 | 22052 ft | 467 kts | 206° |
| 2026-04-25 18:18 | -0.94174 | -79.29528 | 21235 ft | 451 kts | 208° |
| 2026-04-25 18:18 | -0.96942 | -79.30892 | 19996 ft | 437 kts | 209° |
| 2026-04-25 18:19 | -0.99645 | -79.32216 | 18668 ft | 428 kts | 208° |
| 2026-04-25 18:19 | -1.02292 | -79.33481 | 17200 ft | 419 kts | 208° |
| 2026-04-25 18:19 | -1.04907 | -79.34706 | 15694 ft | 412 kts | 207° |
| 2026-04-25 18:19 | -1.07495 | -79.35897 | 14254 ft | 406 kts | 206° |
| 2026-04-25 18:20 | -1.10039 | -79.37063 | 12811 ft | 399 kts | 206° |
| 2026-04-25 18:20 | -1.12545 | -79.38213 | 11531 ft | 393 kts | 207° |
| 2026-04-25 18:20 | -1.15015 | -79.39348 | 10632 ft | 387 kts | 207° |
| 2026-04-25 18:20 | -1.17454 | -79.40470 | 10143 ft | 385 kts | 207° |
| 2026-04-25 18:21 | -1.19888 | -79.41586 | 9933 ft | 383 kts | 207° |
| 2026-04-25 18:21 | -1.22315 | -79.42706 | 9728 ft | 384 kts | 207° |
| 2026-04-25 18:21 | -1.24748 | -79.43832 | 9584 ft | 385 kts | 207° |
| 2026-04-25 18:21 | -1.27168 | -79.44952 | 9590 ft | 383 kts | 207° |
| 2026-04-25 18:22 | -1.29592 | -79.46074 | 9586 ft | 384 kts | 207° |
| 2026-04-25 18:22 | -1.30383 | -79.46440 | 9587 ft | 384 kts | 207° |
| 2026-04-25 18:22 | -1.34416 | -79.48300 | 9602 ft | 384 kts | 207° |
| 2026-04-25 18:22 | -1.36848 | -79.49417 | 9587 ft | 384 kts | 207° |
| 2026-04-25 18:23 | -1.39274 | -79.50529 | 9584 ft | 384 kts | 207° |
| 2026-04-25 18:23 | -1.41705 | -79.51640 | 9603 ft | 384 kts | 207° |
| 2026-04-25 18:23 | -1.44114 | -79.52737 | 9193 ft | 377 kts | 207° |
| 2026-04-25 18:23 | -1.46478 | -79.53803 | 8152 ft | 370 kts | 207° |
| 2026-04-25 18:24 | -1.48822 | -79.54868 | 6937 ft | 368 kts | 207° |
| 2026-04-25 18:24 | -1.51139 | -79.55942 | 6117 ft | 368 kts | 208° |
| 2026-04-25 18:24 | -1.53465 | -79.57043 | 5850 ft | 369 kts | 208° |
| 2026-04-25 18:24 | -1.55759 | -79.58159 | 5655 ft | 367 kts | 208° |
| 2026-04-25 18:25 | -1.58059 | -79.59267 | 5566 ft | 366 kts | 208° |
| 2026-04-25 18:25 | -1.60352 | -79.60357 | 5567 ft | 365 kts | 208° |
| 2026-04-25 18:25 | -1.62613 | -79.61426 | 5570 ft | 364 kts | 208° |
| 2026-04-25 18:25 | -1.64906 | -79.62497 | 5605 ft | 365 kts | 208° |
| 2026-04-25 18:26 | -1.67211 | -79.63567 | 5551 ft | 362 kts | 208° |
| 2026-04-25 18:26 | -1.69488 | -79.64625 | 5543 ft | 361 kts | 207° |
| 2026-04-25 18:26 | -1.71772 | -79.65677 | 5571 ft | 362 kts | 207° |
| 2026-04-25 18:26 | -1.74069 | -79.66733 | 5575 ft | 362 kts | 207° |
| 2026-04-25 18:27 | -1.76316 | -79.67767 | 5376 ft | 345 kts | 208° |
| 2026-04-25 18:27 | -1.78425 | -79.68741 | 5084 ft | 320 kts | 209° |
| 2026-04-25 18:27 | -1.80367 | -79.69641 | 4795 ft | 296 kts | 209° |
| 2026-04-25 18:27 | -1.82172 | -79.70477 | 4359 ft | 274 kts | 210° |
| 2026-04-25 18:28 | -1.83837 | -79.71234 | 4095 ft | 251 kts | 211° |
| 2026-04-25 18:28 | -1.85345 | -79.71912 | 3829 ft | 232 kts | 212° |
| 2026-04-25 18:28 | -1.86799 | -79.72571 | 3408 ft | 222 kts | 212° |
| 2026-04-25 18:29 | -1.89550 | -79.73836 | 3111 ft | 220 kts | 212° |
| 2026-04-25 18:29 | -1.90927 | -79.74484 | 3066 ft | 218 kts | 213° |
| 2026-04-25 18:30 | -1.94935 | -79.76492 | 2872 ft | 214 kts | 215° |
| 2026-04-25 18:30 | -1.96243 | -79.77187 | 2449 ft | 212 kts | 216° |
| 2026-04-25 18:30 | -1.97502 | -79.77886 | 2417 ft | 206 kts | 217° |
| 2026-04-25 18:30 | -1.98754 | -79.78600 | 2462 ft | 212 kts | 217° |
| 2026-04-25 18:31 | -2.00053 | -79.79344 | 2493 ft | 213 kts | 217° |
| 2026-04-25 18:31 | -2.01315 | -79.80071 | 2514 ft | 212 kts | 217° |
| 2026-04-25 18:31 | -2.02598 | -79.80808 | 2521 ft | 214 kts | 217° |
| 2026-04-25 18:31 | -2.03891 | -79.81553 | 2435 ft | 215 kts | 217° |
| 2026-04-25 18:32 | -2.05178 | -79.82295 | 2139 ft | 208 kts | 217° |
| 2026-04-25 18:32 | -2.06392 | -79.82995 | 1884 ft | 196 kts | 218° |
| 2026-04-25 18:32 | -2.07571 | -79.83674 | 1651 ft | 194 kts | 218° |
| 2026-04-25 18:32 | -2.08712 | -79.84326 | 1404 ft | 185 kts | 219° |
| 2026-04-25 18:33 | -2.09780 | -79.85007 | 1069 ft | 179 kts | 216° |
| 2026-04-25 18:33 | -2.10834 | -79.85633 | 841 ft | 177 kts | 207° |
| 2026-04-25 18:33 | -2.11985 | -79.86191 | 694 ft | 179 kts | 204° |
| 2026-04-25 18:33 | -2.13048 | -79.86742 | 525 ft | 171 kts | 212° |
| 2026-04-25 18:34 | -2.14027 | -79.87393 | 319 ft | 166 kts | 210° |
| 2026-04-25 18:34 | -2.14951 | -79.87905 | 41 ft | 138 kts | 209° |
| 2026-04-25 18:34 | -2.15631 | -79.88292 | 29 ft | 70 kts | 210° |
| 2026-04-25 18:34 | -2.15806 | -79.88398 | 29 ft | 20 kts | 212° |
| 2026-04-25 18:35 | -2.15973 | -79.88501 | 28 ft | 21 kts | 212° |
| 2026-04-25 18:35 | -2.16026 | -79.88559 | 31 ft | 11 kts | 263° |
| 2026-04-25 18:35 | -2.15976 | -79.88639 | 27 ft | 21 kts | 314° |